Time;durP1;ratioP1;P1;durP2;ratioP2;P2;SDS_P1;SDS_P2;PMS_P1;PMS_P2;Temp;Humidity;BMP_temperature;BMP_pressure;BME280_temperature;BME280_humidity;BME280_pressure;Samples;Min_cycle;Max_cycle;Signal;HPM_P1;HPM_P2
2022/05/23 00:01:37;;;;;;;3.13;2.70;;;17.40;99.90;;;;;;5093602;28;20622;-72
2022/05/23 00:04:04;;;;;;;2.73;2.53;;;17.30;99.90;;;;;;5092595;28;20674;-72
2022/05/23 00:06:30;;;;;;;4.80;2.53;;;17.30;99.90;;;;;;5093120;28;20621;-72
2022/05/23 00:08:57;;;;;;;3.20;2.93;;;17.20;99.90;;;;;;5093147;28;20632;-72
2022/05/23 00:11:23;;;;;;;5.73;3.00;;;17.20;99.90;;;;;;5092937;28;20997;-72
2022/05/23 00:13:50;;;;;;;3.37;3.07;;;17.10;99.90;;;;;;5093618;28;20609;-71
2022/05/23 00:16:20;;;;;;;3.10;2.90;;;17.10;99.90;;;;;;5093153;28;20609;-71
2022/05/23 00:18:47;;;;;;;4.23;3.43;;;17.00;99.90;;;;;;5093712;28;20934;-71
2022/05/23 00:21:13;;;;;;;3.13;2.60;;;17.00;99.90;;;;;;5093015;28;20625;-72
2022/05/23 00:23:40;;;;;;;3.57;2.83;;;16.90;99.90;;;;;;5093308;28;20613;-71
2022/05/23 00:26:07;;;;;;;3.27;2.97;;;16.90;99.90;;;;;;5092971;28;20638;-71
2022/05/23 00:28:48;;;;;;;6.00;2.60;;;16.80;99.90;;;;;;5093150;28;20618;-72
2022/05/23 00:31:15;;;;;;;3.03;2.87;;;16.80;99.90;;;;;;5092744;28;20678;-71
2022/05/23 00:36:32;;;;;;;3.90;2.77;;;16.80;99.90;;;;;;5092923;28;20578;-71
2022/05/23 00:39:00;;;;;;;3.70;3.40;;;16.80;99.90;;;;;;5092749;28;20613;-71
2022/05/23 00:44:31;;;;;;;3.77;2.93;;;16.70;99.90;;;;;;5095828;28;20874;-71
2022/05/23 00:47:18;;;;;;;4.77;3.57;;;16.70;99.90;;;;;;5096922;28;21188;-72
2022/05/23 00:49:45;;;;;;;3.80;3.10;;;16.70;99.90;;;;;;5096887;28;20640;-72
2022/05/23 00:52:25;;;;;;;3.43;3.10;;;16.70;99.90;;;;;;5097344;28;20612;-72
2022/05/23 00:54:56;;;;;;;2.93;2.60;;;16.70;99.90;;;;;;5079130;28;20668;-73
2022/05/23 00:57:30;;;;;;;6.27;2.60;;;16.70;99.90;;;;;;5097025;28;20653;-72
2022/05/23 00:59:58;;;;;;;3.73;2.40;;;16.80;99.90;;;;;;5096636;28;20573;-73
2022/05/23 01:02:24;;;;;;;2.90;2.70;;;16.80;99.90;;;;;;5095934;28;20589;-72
2022/05/23 01:04:51;;;;;;;3.97;3.33;;;16.80;99.90;;;;;;5095762;28;21163;-72
2022/05/23 01:07:18;;;;;;;3.00;2.77;;;16.80;99.90;;;;;;5096104;28;20605;-72
2022/05/23 01:09:44;;;;;;;4.63;2.90;;;16.80;99.90;;;;;;5096048;28;20678;-72
2022/05/23 01:12:11;;;;;;;2.53;2.33;;;16.70;99.90;;;;;;5095693;28;20613;-72
2022/05/23 01:14:51;;;;;;;3.53;2.70;;;16.70;99.90;;;;;;5077629;28;20627;-72
2022/05/23 01:17:19;;;;;;;3.43;3.10;;;16.60;99.90;;;;;;5095524;28;20601;-72
2022/05/23 01:19:45;;;;;;;3.93;3.30;;;16.60;99.90;;;;;;5095556;28;20627;-72
2022/05/23 01:22:20;;;;;;;4.93;3.07;;;16.60;99.90;;;;;;5095470;28;20600;-72
2022/05/23 01:25:17;;;;;;;8.07;3.00;;;16.60;99.90;;;;;;5095879;28;20570;-72
2022/05/23 01:27:44;;;;;;;3.10;2.90;;;16.50;99.90;;;;;;5078049;28;21187;-72
2022/05/23 01:30:11;;;;;;;4.57;2.70;;;16.60;99.90;;;;;;5095292;28;20926;-72
2022/05/23 01:32:38;;;;;;;3.33;3.00;;;16.50;99.90;;;;;;5095372;28;20674;-72
2022/05/23 01:35:06;;;;;;;4.27;2.97;;;16.50;99.90;;;;;;5094872;28;20628;-72
2022/05/23 01:37:32;;;;;;;2.90;2.70;;;16.40;99.90;;;;;;5077956;28;20601;-72
2022/05/23 01:39:59;;;;;;;2.93;2.57;;;16.40;99.90;;;;;;5095653;28;20597;-72
2022/05/23 01:42:25;;;;;;;3.17;2.97;;;16.40;99.90;;;;;;5094932;28;20671;-72
2022/05/23 01:44:52;;;;;;;2.73;2.53;;;16.40;99.90;;;;;;5095283;28;20614;-72
2022/05/23 01:47:20;;;;;;;3.20;3.00;;;16.40;99.90;;;;;;5095302;28;20596;-72
2022/05/23 01:49:47;;;;;;;4.47;3.30;;;16.40;99.90;;;;;;5095075;28;20592;-72
2022/05/23 01:52:14;;;;;;;6.27;3.63;;;16.40;99.90;;;;;;5095241;28;20663;-72
2022/05/23 01:54:41;;;;;;;3.00;2.80;;;16.50;99.90;;;;;;5094184;28;20698;-73
2022/05/23 01:57:10;;;;;;;4.17;3.03;;;16.50;99.90;;;;;;5095573;28;20601;-72
2022/05/23 02:02:47;;;;;;;5.10;2.33;;;16.40;99.90;;;;;;5012750;28;20752;-73
2022/05/23 02:05:15;;;;;;;6.30;3.23;;;16.40;99.90;;;;;;4996133;28;21215;-73
2022/05/23 02:07:42;;;;;;;2.80;2.60;;;16.50;99.90;;;;;;5055277;28;20636;-72
2022/05/23 02:10:10;;;;;;;2.60;2.37;;;16.60;99.90;;;;;;5095139;28;20613;-71
2022/05/23 02:12:38;;;;;;;2.37;2.17;;;16.70;99.90;;;;;;5094381;28;20625;-72
2022/05/23 02:15:06;;;;;;;3.00;2.80;;;16.70;99.90;;;;;;5095123;28;20730;-71
2022/05/23 02:17:32;;;;;;;2.37;2.23;;;16.70;99.90;;;;;;5094961;28;20639;-74
2022/05/23 02:19:59;;;;;;;2.70;2.50;;;16.70;99.90;;;;;;5094798;28;20632;-72
2022/05/23 02:22:25;;;;;;;3.13;2.80;;;16.80;99.90;;;;;;5076375;28;20680;-71
2022/05/23 02:24:52;;;;;;;2.80;2.60;;;16.80;99.90;;;;;;5094773;28;20609;-72
2022/05/23 02:27:18;;;;;;;6.07;2.73;;;16.90;99.90;;;;;;5094378;28;20586;-72
2022/05/23 02:29:45;;;;;;;3.47;2.63;;;16.90;99.90;;;;;;5095078;28;20621;-72
2022/05/23 02:32:12;;;;;;;4.00;2.70;;;16.90;99.90;;;;;;5094575;28;20606;-72
2022/05/23 02:34:39;;;;;;;5.23;2.50;;;16.90;99.90;;;;;;5094146;28;20941;-72
2022/05/23 02:37:05;;;;;;;2.27;2.10;;;16.90;99.90;;;;;;5094146;28;20617;-72
2022/05/23 02:39:32;;;;;;;3.83;2.27;;;16.90;99.90;;;;;;5094190;28;21141;-72
2022/05/23 02:41:58;;;;;;;4.53;2.80;;;17.00;99.90;;;;;;5094230;28;20648;-72
2022/05/23 02:44:25;;;;;;;2.60;2.40;;;17.00;99.90;;;;;;5076484;28;20639;-72
2022/05/23 02:46:51;;;;;;;2.93;2.27;;;17.00;99.90;;;;;;5076028;28;20617;-72
2022/05/23 02:49:18;;;;;;;2.90;2.70;;;16.90;99.90;;;;;;5094637;28;20932;-72
2022/05/23 02:51:44;;;;;;;5.17;2.77;;;16.90;99.90;;;;;;5094272;28;20617;-72
2022/05/23 02:54:11;;;;;;;3.77;2.83;;;16.90;99.90;;;;;;5093989;28;20617;-73
2022/05/23 02:56:38;;;;;;;3.43;2.43;;;16.90;99.90;;;;;;5094535;28;20649;-73
2022/05/23 02:59:04;;;;;;;2.87;2.67;;;16.90;99.90;;;;;;5094306;28;20602;-72
2022/05/23 03:01:31;;;;;;;4.03;2.90;;;16.90;99.90;;;;;;5094239;28;20958;-72
2022/05/23 03:03:58;;;;;;;4.77;3.13;;;16.80;99.90;;;;;;5094077;28;20608;-73
2022/05/23 03:06:24;;;;;;;5.90;3.50;;;16.80;99.90;;;;;;5094121;28;20650;-73
2022/05/23 03:08:50;;;;;;;3.33;3.13;;;16.80;99.90;;;;;;5075433;28;20618;-72
2022/05/23 03:11:18;;;;;;;3.10;2.87;;;16.70;99.90;;;;;;5093973;28;20690;-72
2022/05/23 03:13:44;;;;;;;3.10;2.90;;;16.70;99.90;;;;;;5093635;28;20670;-72
2022/05/23 03:16:12;;;;;;;5.10;3.23;;;16.70;99.90;;;;;;5075647;28;20672;-73
2022/05/23 03:18:39;;;;;;;5.57;3.03;;;16.60;99.90;;;;;;5094118;28;20617;-72
2022/05/23 03:21:09;;;;;;;3.57;3.27;;;16.60;99.90;;;;;;5075794;28;20963;-73
2022/05/23 03:29:09;;;;;;;3.63;3.30;;;16.20;99.90;;;;;;5094283;28;21129;-73
2022/05/23 03:31:36;;;;;;;4.30;3.40;;;16.30;99.90;;;;;;5093989;28;21148;-73
2022/05/23 03:34:02;;;;;;;3.43;3.17;;;16.30;99.90;;;;;;5093914;28;20620;-73
2022/05/23 03:36:29;;;;;;;4.13;3.83;;;16.40;99.90;;;;;;5094412;28;20656;-73
2022/05/23 03:38:55;;;;;;;4.00;3.70;;;16.40;99.90;;;;;;5095045;28;20716;-72
2022/05/23 03:41:22;;;;;;;4.13;3.73;;;16.40;99.90;;;;;;5094213;28;20645;-71
2022/05/23 03:43:48;;;;;;;13.03;4.40;;;16.50;99.90;;;;;;5093956;28;20580;-73
2022/05/23 03:46:15;;;;;;;5.60;3.70;;;16.50;99.90;;;;;;5093809;28;20624;-72
2022/05/23 03:48:41;;;;;;;5.07;4.37;;;16.50;99.90;;;;;;5092991;28;20971;-71
2022/05/23 03:51:08;;;;;;;4.67;4.10;;;16.50;99.90;;;;;;5075401;28;21030;-71
2022/05/23 03:53:35;;;;;;;7.97;4.97;;;16.60;99.90;;;;;;5093363;28;20609;-72
2022/05/23 03:56:02;;;;;;;6.30;4.40;;;16.60;99.90;;;;;;5093512;28;20657;-72
2022/05/23 03:58:29;;;;;;;6.93;4.67;;;16.60;99.90;;;;;;5093478;28;20597;-73
2022/05/23 04:01:13;;;;;;;4.40;4.10;;;16.60;99.90;;;;;;5093493;28;20601;-72
2022/05/23 04:03:40;;;;;;;7.37;4.73;;;16.60;99.90;;;;;;5093458;28;20613;-72
2022/05/23 04:06:06;;;;;;;6.97;4.30;;;16.50;99.90;;;;;;5092856;28;20637;-72
2022/05/23 04:08:33;;;;;;;5.53;4.63;;;16.40;99.90;;;;;;5093326;28;20602;-72
2022/05/23 04:11:00;;;;;;;4.30;3.90;;;16.40;99.90;;;;;;5093255;28;20674;-72
2022/05/23 04:13:26;;;;;;;7.70;5.10;;;16.40;99.90;;;;;;5092927;28;21233;-72
2022/05/23 04:15:53;;;;;;;8.50;5.10;;;16.40;99.90;;;;;;5092759;28;20645;-72
2022/05/23 04:18:19;;;;;;;5.03;4.30;;;16.40;99.90;;;;;;5093422;28;20624;-73
2022/05/23 04:20:46;;;;;;;5.57;5.03;;;16.40;99.90;;;;;;5096476;28;20621;-73
2022/05/23 04:23:13;;;;;;;5.40;5.00;;;16.40;99.90;;;;;;5096656;28;20596;-72
2022/05/23 04:25:45;;;;;;;4.80;4.40;;;16.30;99.90;;;;;;5096999;28;20617;-72
2022/05/23 04:28:13;;;;;;;7.23;5.13;;;16.20;99.90;;;;;;5096653;28;20552;-71
2022/05/23 04:30:39;;;;;;;5.90;5.50;;;16.10;99.90;;;;;;5098266;28;20613;-72
2022/05/23 04:35:53;;;;;;;8.30;6.40;;;15.80;99.90;;;;;;5097727;28;20990;-72
2022/05/23 04:38:19;;;;;;;7.37;6.10;;;15.80;99.90;;;;;;5097754;28;20613;-72
2022/05/23 04:40:47;;;;;;;7.50;6.90;;;15.80;99.90;;;;;;5097352;28;20650;-72
2022/05/23 04:43:14;;;;;;;8.20;6.70;;;15.70;99.90;;;;;;5079248;28;20617;-72
2022/05/23 04:45:40;;;;;;;12.50;6.83;;;15.70;99.90;;;;;;5096371;28;20624;-72
2022/05/23 04:50:52;;;;;;;6.57;6.00;;;15.60;99.90;;;;;;5096484;28;21147;-72
2022/05/23 04:53:19;;;;;;;8.20;6.40;;;15.50;99.90;;;;;;5096342;28;20594;-72
2022/05/23 04:55:45;;;;;;;7.27;6.53;;;15.40;99.90;;;;;;5096320;28;20631;-72
2022/05/23 04:58:13;;;;;;;9.50;7.70;;;15.30;99.90;;;;;;5096175;28;21233;-72
2022/05/23 05:00:42;;;;;;;9.13;6.83;;;15.20;99.90;;;;;;5096460;28;20575;-72
2022/05/23 05:03:09;;;;;;;8.07;7.10;;;15.20;99.90;;;;;;5096114;28;20597;-72
2022/05/23 05:05:36;;;;;;;8.20;6.60;;;15.10;99.90;;;;;;5096292;28;20663;-71
2022/05/23 05:08:03;;;;;;;7.87;6.70;;;15.10;99.90;;;;;;5095587;28;21132;-72
2022/05/23 05:10:30;;;;;;;6.83;6.23;;;15.20;99.90;;;;;;5096537;28;20617;-71
2022/05/23 05:12:58;;;;;;;7.37;6.63;;;15.20;99.90;;;;;;5096014;28;20612;-71
2022/05/23 05:15:26;;;;;;;9.00;6.20;;;15.20;99.90;;;;;;5096243;28;21019;-71
2022/05/23 05:17:54;;;;;;;7.20;6.70;;;15.20;99.90;;;;;;5078287;28;20632;-71
2022/05/23 05:20:21;;;;;;;7.83;7.07;;;15.20;99.90;;;;;;5096350;28;20586;-71
2022/05/23 05:22:48;;;;;;;10.90;6.73;;;15.30;99.90;;;;;;5096552;28;20601;-71
2022/05/23 05:25:16;;;;;;;6.43;5.80;;;15.40;99.90;;;;;;5096353;28;20621;-71
2022/05/23 05:27:44;;;;;;;7.90;6.77;;;15.50;99.90;;;;;;5096036;28;20672;-72
2022/05/23 05:30:14;;;;;;;6.37;5.73;;;15.60;99.90;;;;;;5076889;28;21175;-71
2022/05/23 05:32:51;;;;;;;6.90;6.40;;;15.60;99.90;;;;;;5096633;28;20566;-71
2022/05/23 05:35:27;;;;;;;6.77;6.10;;;15.60;99.90;;;;;;5096527;28;20581;-71
2022/05/23 05:38:09;;;;;;;6.53;6.03;;;15.60;99.90;;;;;;5095401;28;20619;-72
2022/05/23 05:40:37;;;;;;;10.67;5.53;;;15.60;99.90;;;;;;5095321;28;20624;-72
2022/05/23 05:43:16;;;;;;;6.60;6.00;;;15.60;99.90;;;;;;5078131;28;20570;-72
2022/05/23 05:45:56;;;;;;;8.73;6.17;;;15.80;99.90;;;;;;5095524;28;20586;-72
2022/05/23 05:48:23;;;;;;;7.32;5.90;;;16.00;99.90;;;;;;5095993;28;20725;-75
2022/05/23 05:50:49;;;;;;;6.07;5.50;;;16.00;99.90;;;;;;5096896;28;20302;-75
2022/05/23 05:53:30;;;;;;;6.63;5.60;;;15.80;99.90;;;;;;5096857;28;20605;-77
2022/05/23 05:55:59;;;;;;;6.83;6.07;;;15.90;99.90;;;;;;5078085;28;20657;-70
2022/05/23 05:58:25;;;;;;;9.30;6.70;;;16.10;99.90;;;;;;5096428;28;20686;-71
2022/05/23 06:00:52;;;;;;;6.37;5.87;;;16.20;99.90;;;;;;5095463;28;20605;-70
2022/05/23 06:03:18;;;;;;;5.73;5.23;;;16.50;99.90;;;;;;5095468;28;20624;-71
2022/05/23 06:11:23;;;;;;;6.10;5.67;;;16.20;99.90;;;;;;5095332;28;20936;-71
2022/05/23 06:13:51;;;;;;;10.63;6.93;;;16.40;99.90;;;;;;5095673;28;20931;-71
2022/05/23 06:16:18;;;;;;;5.83;5.33;;;16.50;99.90;;;;;;5095552;28;20653;-72
2022/05/23 06:18:45;;;;;;;5.80;5.30;;;16.60;99.90;;;;;;5095159;28;20617;-71
2022/05/23 06:21:12;;;;;;;5.90;5.40;;;16.70;99.90;;;;;;5060637;28;20912;-71
2022/05/23 06:23:40;;;;;;;7.33;6.60;;;17.10;99.90;;;;;;5077311;28;20635;-70
2022/05/23 06:26:06;;;;;;;5.43;4.93;;;17.10;99.90;;;;;;5094709;28;20632;-72
2022/05/23 06:28:35;;;;;;;5.40;5.00;;;16.90;99.90;;;;;;5095093;28;20609;-70
2022/05/23 06:31:02;;;;;;;5.83;5.23;;;16.90;99.90;;;;;;5095432;28;20624;-70
2022/05/23 06:33:30;;;;;;;5.60;5.00;;;16.90;99.90;;;;;;5095491;28;20616;-70
2022/05/23 06:35:57;;;;;;;5.90;5.40;;;16.90;99.90;;;;;;5094477;28;20653;-70
2022/05/23 06:38:25;;;;;;;5.57;5.13;;;16.90;99.90;;;;;;5094651;28;20612;-70
2022/05/23 06:40:52;;;;;;;5.93;4.87;;;17.20;99.90;;;;;;5093628;28;21014;-70
2022/05/23 06:43:19;;;;;;;5.43;4.90;;;17.20;99.90;;;;;;5076408;28;20671;-71
2022/05/23 06:45:47;;;;;;;7.07;5.00;;;17.10;99.90;;;;;;5094865;28;20617;-70
2022/05/23 06:48:13;;;;;;;5.87;5.30;;;16.90;99.90;;;;;;5094292;28;20972;-69
2022/05/23 06:50:40;;;;;;;5.83;5.27;;;17.10;99.90;;;;;;5094488;28;20613;-69
2022/05/23 06:53:06;;;;;;;6.90;6.00;;;17.00;99.90;;;;;;5094353;28;20614;-70
2022/05/23 06:55:33;;;;;;;5.50;5.20;;;17.20;99.90;;;;;;5093969;28;20622;-70
2022/05/23 06:57:59;;;;;;;8.00;5.70;;;17.50;99.90;;;;;;5094604;28;20602;-70
2022/05/23 07:00:26;;;;;;;5.80;5.27;;;17.80;99.90;;;;;;5093885;28;20648;-71
2022/05/23 07:02:52;;;;;;;6.00;5.60;;;17.70;99.90;;;;;;5094122;28;20617;-70
2022/05/23 07:13:35;;;;;;;6.77;5.90;;;18.40;99.90;;;;;;5094254;28;20573;-70
2022/05/23 07:16:02;;;;;;;5.83;5.27;;;18.60;99.90;;;;;;5075374;28;20661;-71
2022/05/23 07:18:30;;;;;;;10.30;6.00;;;18.90;99.90;;;;;;5094062;28;20594;-72
2022/05/23 07:20:56;;;;;;;4.37;3.90;;;19.10;99.90;;;;;;5075919;28;20713;-71
2022/05/23 07:23:23;;;;;;;4.30;4.00;;;19.40;99.90;;;;;;5093229;28;20948;-71
2022/05/23 07:25:49;;;;;;;5.43;4.43;;;19.50;99.90;;;;;;5093567;28;20673;-71
2022/05/23 07:28:16;;;;;;;7.67;4.70;;;19.60;99.90;;;;;;5093509;28;20638;-71
2022/05/23 07:30:45;;;;;;;7.23;5.17;;;19.60;99.90;;;;;;5093463;28;20617;-71
2022/05/23 07:33:12;;;;;;;5.43;4.13;;;19.40;99.90;;;;;;5092688;28;20708;-71
2022/05/23 07:35:38;;;;;;;4.47;4.07;;;19.30;99.90;;;;;;5093217;28;20641;-72
2022/05/23 07:38:05;;;;;;;5.43;5.00;;;19.10;99.90;;;;;;5093213;28;20610;-70
2022/05/23 07:40:31;;;;;;;6.47;4.80;;;18.80;99.90;;;;;;5071561;28;20755;-70
2022/05/23 07:42:58;;;;;;;8.23;5.50;;;18.80;99.90;;;;;;5073210;28;21157;-69
2022/05/23 07:45:24;;;;;;;5.17;4.43;;;18.80;99.90;;;;;;5073538;28;20606;-72
2022/05/23 07:47:50;;;;;;;5.53;5.03;;;18.60;99.90;;;;;;5073056;28;21164;-71
2022/05/23 07:50:19;;;;;;;4.43;4.10;;;18.70;99.90;;;;;;5073204;28;20686;-72
2022/05/23 08:00:31;;;;;;;5.07;4.67;;;18.80;99.90;;;;;;5073664;28;20626;-69
2022/05/23 08:01:02;;;;;;;4.50;4.20;;;19.00;99.90;;;;;;5077193;28;20570;-71
2022/05/23 08:03:28;;;;;;;5.30;4.80;;;19.00;99.90;;;;;;5076787;28;20617;-70
2022/05/23 08:05:55;;;;;;;5.40;4.20;;;19.30;99.90;;;;;;5077340;28;20704;-70
2022/05/23 08:08:21;;;;;;;6.03;4.83;;;19.10;99.90;;;;;;5076797;28;20983;-70
2022/05/23 08:10:48;;;;;;;5.47;4.93;;;19.10;99.90;;;;;;5077168;28;21244;-72
2022/05/23 08:13:15;;;;;;;5.00;4.50;;;18.90;99.90;;;;;;5077047;28;20618;-71
2022/05/23 08:15:41;;;;;;;10.00;5.50;;;19.30;99.90;;;;;;5077304;28;20663;-72
2022/05/23 08:18:09;;;;;;;4.53;4.10;;;19.80;99.90;;;;;;5076975;28;21166;-72
2022/05/23 08:20:38;;;;;;;5.90;5.30;;;19.90;99.90;;;;;;5076917;28;20656;-72
2022/05/23 08:23:04;;;;;;;5.60;5.10;;;19.60;99.90;;;;;;5076924;28;20594;-71
2022/05/23 08:25:31;;;;;;;5.63;5.00;;;19.70;99.90;;;;;;5076983;28;20628;-71
2022/05/23 08:27:57;;;;;;;5.30;5.00;;;20.00;99.90;;;;;;5077140;28;20617;-71
2022/05/23 08:30:24;;;;;;;7.43;6.70;;;20.40;99.90;;;;;;5077123;28;21165;-72
2022/05/23 08:32:50;;;;;;;7.60;4.60;;;21.00;99.90;;;;;;5076831;28;20966;-72
2022/05/23 08:35:18;;;;;;;5.77;5.20;;;21.20;99.90;;;;;;5076587;28;20621;-72
2022/05/23 08:37:44;;;;;;;5.57;5.07;;;21.00;99.90;;;;;;5076996;28;21014;-74
2022/05/23 08:40:11;;;;;;;5.23;4.70;;;20.70;99.90;;;;;;5076050;28;20602;-74
2022/05/23 08:42:58;;;;;;;6.97;5.07;;;20.70;99.90;;;;;;5096876;28;20577;-71
2022/05/23 08:45:35;;;;;;;7.50;4.83;;;20.70;99.90;;;;;;5096825;28;20570;-70
2022/05/23 08:48:22;;;;;;;5.30;4.83;;;20.20;99.90;;;;;;5096246;28;20624;-70
2022/05/23 08:50:59;;;;;;;6.30;4.23;;;20.40;99.90;;;;;;5096120;28;20613;-70
2022/05/23 08:53:32;;;;;;;5.87;5.20;;;20.90;99.90;;;;;;5095653;28;20616;-70
2022/05/23 08:56:04;;;;;;;4.73;4.27;;;21.10;99.90;;;;;;5096281;28;21124;-70
2022/05/23 08:58:34;;;;;;;5.43;4.93;;;21.40;99.90;;;;;;5096518;28;20581;-71
2022/05/23 09:01:15;;;;;;;5.13;4.63;;;21.90;99.90;;;;;;5078305;28;20617;-72
2022/05/23 09:04:08;;;;;;;5.23;4.83;;;22.10;99.90;;;;;;5095966;28;21135;-71
2022/05/23 09:06:49;;;;;;;4.70;4.33;;;21.50;99.90;;;;;;5078380;28;20717;-71
2022/05/23 09:09:19;;;;;;;4.93;4.53;;;21.50;99.90;;;;;;5096735;28;20620;-71
2022/05/23 09:11:52;;;;;;;4.87;4.47;;;21.60;99.90;;;;;;5096527;28;20620;-71
2022/05/23 09:14:19;;;;;;;5.20;4.37;;;21.90;99.90;;;;;;5096966;28;20931;-71
2022/05/23 09:16:54;;;;;;;5.70;5.17;;;22.80;99.90;;;;;;5096502;28;21246;-72
2022/05/23 09:19:25;;;;;;;5.37;4.87;;;23.00;99.90;;;;;;5096371;28;21138;-71
2022/05/23 09:22:12;;;;;;;5.37;4.63;;;23.20;99.90;;;;;;5096472;28;20613;-71
2022/05/23 09:24:45;;;;;;;7.27;5.10;;;23.10;99.90;;;;;;5097048;28;20578;-71
2022/05/23 09:27:35;;;;;;;4.80;4.27;;;22.90;99.90;;;;;;5096693;28;20636;-71
2022/05/23 09:30:05;;;;;;;5.30;4.77;;;22.90;99.90;;;;;;5096123;28;20634;-70
2022/05/23 09:32:55;;;;;;;8.47;4.27;;;22.80;99.90;;;;;;5076853;28;20617;-70
2022/05/23 09:35:45;;;;;;;5.03;4.43;;;23.00;99.90;;;;;;5095902;28;20578;-70
2022/05/23 09:38:29;;;;;;;4.77;4.37;;;22.90;99.90;;;;;;5076885;28;20673;-71
2022/05/23 09:40:56;;;;;;;5.17;4.67;;;23.00;99.90;;;;;;5077651;28;21173;-71
2022/05/23 09:49:21;;;;;;;4.93;4.43;;;23.20;99.90;;;;;;5095912;28;20580;-70
2022/05/23 09:51:56;;;;;;;4.50;4.10;;;23.60;99.90;;;;;;5095384;28;21160;-70
2022/05/23 09:54:35;;;;;;;4.80;4.40;;;23.50;99.90;;;;;;5095833;28;20601;-70
2022/05/23 09:57:05;;;;;;;6.80;4.30;;;23.20;99.90;;;;;;5095478;28;20639;-70
2022/05/23 09:59:37;;;;;;;6.10;5.47;;;22.70;99.90;;;;;;5095262;28;20582;-70
2022/05/23 10:02:16;;;;;;;7.40;5.10;;;22.30;99.90;;;;;;5095222;28;20570;-70
2022/05/23 10:04:45;;;;;;;6.27;5.50;;;22.40;99.90;;;;;;5095239;28;21132;-69
2022/05/23 10:07:47;;;;;;;6.23;5.10;;;22.40;99.90;;;;;;5094750;28;20625;-70
2022/05/23 10:10:28;;;;;;;9.50;5.07;;;22.60;99.90;;;;;;5078117;28;20644;-69
2022/05/23 10:13:16;;;;;;;4.73;3.93;;;23.20;99.90;;;;;;5094646;28;20593;-69
2022/05/23 10:15:44;;;;;;;5.03;3.90;;;22.90;99.90;;;;;;5075648;28;20966;-70
2022/05/23 10:18:21;;;;;;;4.40;4.00;;;22.50;99.90;;;;;;5076804;28;21002;-68
2022/05/23 10:20:48;;;;;;;5.23;4.70;;;22.60;99.90;;;;;;5094604;28;20577;-69
2022/05/23 10:23:17;;;;;;;4.97;4.27;;;22.50;99.90;;;;;;5094970;28;20620;-69
2022/05/23 10:26:06;;;;;;;5.17;4.60;;;22.60;99.90;;;;;;5094836;28;20672;-69
2022/05/23 10:28:48;;;;;;;5.90;5.10;;;22.30;99.90;;;;;;5094504;28;20574;-67
2022/05/23 10:31:25;;;;;;;8.00;4.73;;;22.10;99.90;;;;;;5094286;28;20935;-67
2022/05/23 10:34:13;;;;;;;4.33;3.93;;;22.10;99.90;;;;;;5094285;28;20569;-68
2022/05/23 10:36:42;;;;;;;5.77;3.50;;;22.40;99.90;;;;;;5094270;28;20637;-69
2022/05/23 10:42:29;;;;;;;4.70;4.30;;;22.30;99.90;;;;;;5094023;28;20633;-67
2022/05/23 10:45:07;;;;;;;4.53;4.20;;;21.80;99.90;;;;;;5057200;28;20973;-68
2022/05/23 10:48:11;;;;;;;5.80;4.47;;;21.70;99.90;;;;;;5094221;28;20577;-69
2022/05/23 10:50:54;;;;;;;6.43;5.93;;;21.60;99.90;;;;;;5094512;28;20585;-68
2022/05/23 10:53:31;;;;;;;6.60;6.10;;;21.50;99.90;;;;;;5093989;28;20593;-68
2022/05/23 10:56:15;;;;;;;7.67;6.97;;;21.40;99.90;;;;;;5094477;28;20805;-69
2022/05/23 10:58:45;;;;;;;6.23;5.63;;;21.40;99.90;;;;;;5094388;28;21072;-70
2022/05/23 11:01:24;;;;;;;11.50;6.90;;;21.90;99.90;;;;;;5093824;28;20635;-70
2022/05/23 11:04:09;;;;;;;6.57;5.97;;;21.90;99.90;;;;;;5094313;28;20573;-70
2022/05/23 11:06:55;;;;;;;7.63;5.70;;;21.70;99.90;;;;;;5074958;28;20652;-69
2022/05/23 11:09:42;;;;;;;6.97;6.37;;;21.90;99.90;;;;;;5094225;28;20935;-69
2022/05/23 11:12:35;;;;;;;8.63;6.57;;;21.60;99.90;;;;;;5093468;28;20637;-69
2022/05/23 11:15:04;;;;;;;8.57;6.17;;;21.30;99.90;;;;;;5093490;28;20569;-70
2022/05/23 11:17:41;;;;;;;7.60;6.97;;;21.20;99.90;;;;;;5093186;28;20653;-70
2022/05/23 11:20:22;;;;;;;8.00;7.40;;;21.20;99.90;;;;;;5093491;28;20626;-69
2022/05/23 11:23:02;;;;;;;8.03;6.80;;;20.90;99.90;;;;;;5093841;28;20616;-69
2022/05/23 11:25:29;;;;;;;9.70;6.17;;;20.80;99.90;;;;;;5093825;28;20934;-69
2022/05/23 11:33:50;;;;;;;8.97;6.70;;;20.70;99.90;;;;;;5093495;28;20585;-69
2022/05/23 11:36:44;;;;;;;7.03;6.40;;;20.60;99.90;;;;;;5076141;28;20616;-69
2022/05/23 11:39:42;;;;;;;8.53;7.50;;;20.80;99.90;;;;;;5093046;28;20625;-69
2022/05/23 11:42:13;;;;;;;7.50;6.80;;;20.90;99.90;;;;;;5093424;28;21215;-69
2022/05/23 11:44:42;;;;;;;8.27;7.47;;;20.70;99.90;;;;;;5093078;28;20628;-69
2022/05/23 11:47:11;;;;;;;8.30;6.67;;;20.50;99.90;;;;;;5093589;28;21256;-69
2022/05/23 11:50:16;;;;;;;9.13;6.83;;;20.50;99.90;;;;;;5093969;28;21160;-68
2022/05/23 11:52:47;;;;;;;9.00;8.07;;;20.60;99.90;;;;;;5073499;28;20637;-69
2022/05/23 11:55:55;;;;;;;6.83;6.13;;;20.60;99.90;;;;;;5094711;28;20611;-68
2022/05/23 11:58:24;;;;;;;8.17;7.10;;;20.60;99.90;;;;;;5093393;28;20663;-68
2022/05/23 12:01:26;;;;;;;8.40;6.60;;;20.60;99.90;;;;;;5093555;28;21171;-68
2022/05/23 12:03:54;;;;;;;7.53;6.83;;;20.60;99.90;;;;;;5074959;28;21210;-69
2022/05/23 12:06:24;;;;;;;10.47;6.80;;;20.70;99.90;;;;;;5093096;28;20703;-69
2022/05/23 12:09:12;;;;;;;8.13;6.10;;;20.80;99.90;;;;;;5093191;28;21271;-69
2022/05/23 12:11:42;;;;;;;7.90;5.80;;;20.90;99.90;;;;;;5093831;28;20605;-70
2022/05/23 12:14:26;;;;;;;7.23;6.00;;;21.10;99.90;;;;;;5092872;28;20975;-69
2022/05/23 12:16:55;;;;;;;6.17;5.70;;;21.20;99.90;;;;;;5093309;28;21056;-69
2022/05/23 12:19:30;;;;;;;6.50;6.00;;;21.00;99.90;;;;;;5092474;28;20617;-69
2022/05/23 12:22:33;;;;;;;7.97;6.73;;;20.80;99.90;;;;;;5092978;28;20647;-69
2022/05/23 12:25:09;;;;;;;8.40;5.90;;;21.50;99.90;;;;;;5087032;28;20644;-69
2022/05/23 12:27:58;;;;;;;7.37;5.33;;;21.50;99.90;;;;;;5092426;28;20628;-69
2022/05/23 12:30:33;;;;;;;7.87;6.17;;;21.60;99.90;;;;;;5093096;28;20610;-70
2022/05/23 12:32:59;;;;;;;6.70;6.07;;;21.40;99.90;;;;;;5093174;28;20572;-70
2022/05/23 12:35:44;;;;;;;5.70;5.20;;;21.60;99.90;;;;;;5092734;28;20620;-70
2022/05/23 12:38:17;;;;;;;7.33;5.53;;;21.60;99.90;;;;;;5092816;28;21004;-70
2022/05/23 12:41:10;;;;;;;7.73;6.00;;;21.50;99.90;;;;;;5096053;28;20644;-70
2022/05/23 12:44:07;;;;;;;7.57;6.77;;;21.80;99.90;;;;;;5096553;28;20621;-70
2022/05/23 12:46:46;;;;;;;9.20;7.50;;;22.10;99.90;;;;;;5096338;28;20577;-70
2022/05/23 12:49:27;;;;;;;9.30;6.80;;;21.60;99.90;;;;;;5095504;28;20609;-69
2022/05/23 12:52:12;;;;;;;6.60;6.00;;;21.80;99.90;;;;;;5078170;28;20621;-69
2022/05/23 12:54:53;;;;;;;7.17;6.47;;;22.20;99.90;;;;;;5095549;28;20609;-69
2022/05/23 12:57:54;;;;;;;8.50;6.33;;;22.90;99.90;;;;;;5096384;28;20633;-69
2022/05/23 13:00:32;;;;;;;6.50;5.40;;;23.90;99.90;;;;;;5096202;28;20572;-70
2022/05/23 13:03:28;;;;;;;9.23;5.80;;;24.40;99.90;;;;;;5096384;28;20581;-70
2022/05/23 13:06:06;;;;;;;6.73;5.57;;;24.30;99.90;;;;;;5096699;28;20621;-69
2022/05/23 13:09:05;;;;;;;8.90;6.93;;;23.90;99.90;;;;;;5096287;28;20942;-68
2022/05/23 13:11:43;;;;;;;6.27;5.67;;;23.50;99.90;;;;;;5074728;28;21071;-69
2022/05/23 13:14:10;;;;;;;8.60;5.40;;;23.50;99.90;;;;;;5095717;28;20576;-67
2022/05/23 13:16:39;;;;;;;6.30;5.80;;;23.80;99.90;;;;;;5061302;28;21159;-68
2022/05/23 13:22:12;;;;;;;6.07;5.47;;;23.10;99.90;;;;;;5096175;28;20581;-68
2022/05/23 13:24:49;;;;;;;6.40;5.67;;;23.70;99.90;;;;;;5095824;28;20957;-68
2022/05/23 13:27:28;;;;;;;6.30;5.43;;;25.10;99.90;;;;;;5095886;28;20934;-68
2022/05/23 13:29:57;;;;;;;6.23;5.67;;;25.80;99.90;;;;;;5095973;28;20937;-68
2022/05/23 13:32:26;;;;;;;6.37;5.77;;;26.10;99.90;;;;;;5095490;28;20620;-69
2022/05/23 13:34:54;;;;;;;6.53;5.93;;;26.50;99.90;;;;;;5095172;28;20624;-71
2022/05/23 13:37:36;;;;;;;6.70;5.90;;;25.70;99.90;;;;;;5095571;28;20664;-68
2022/05/23 13:40:19;;;;;;;6.50;5.77;;;25.50;99.90;;;;;;5096393;28;20605;-69
2022/05/23 13:42:45;;;;;;;7.13;6.43;;;25.60;99.90;;;;;;5095862;28;20679;-69
2022/05/23 13:45:17;;;;;;;6.70;6.00;;;25.40;99.90;;;;;;5077643;28;20597;-70
2022/05/23 13:48:02;;;;;;;8.73;6.40;;;26.20;99.90;;;;;;5095609;28;20608;-70
2022/05/23 13:50:35;;;;;;;6.30;5.70;;;25.80;99.90;;;;;;5094488;28;20589;-70
2022/05/23 13:53:07;;;;;;;8.53;5.47;;;26.20;99.90;;;;;;5095295;28;20578;-70
2022/05/23 13:55:43;;;;;;;12.43;6.73;;;26.90;99.90;;;;;;5077625;28;20574;-71
2022/05/23 13:58:14;;;;;;;6.87;6.37;;;26.90;99.90;;;;;;5095059;28;20640;-71
2022/05/23 14:01:06;;;;;;;7.53;7.03;;;27.00;99.90;;;;;;5094873;28;21100;-71
2022/05/23 14:03:43;;;;;;;10.90;7.73;;;26.50;99.90;;;;;;5095315;28;20573;-68
2022/05/23 14:06:15;;;;;;;6.67;5.90;;;26.20;99.90;;;;;;5076829;28;20649;-69
2022/05/23 14:08:52;;;;;;;8.17;7.37;;;26.60;99.90;;;;;;5094683;28;20617;-70